Terminal Aerodrome Forecast
Issued by NWS

Home | Current Version | Previous Version | Text Only | Print | Product List | Glossary On
Versions: 1 2 3 4 5 6 7 8 9 10 11 12 13 14 15 16 17 18 19 20 21 22 23 24 25 26 27
000
FTUS43 KDVN 301120
TAFBRL
TAF
KBRL 301120Z 3012/3112 03002KT 2SM BR SCT008
      TEMPO 3012/3013 1/4SM FG VV001
     FM301500 09003KT P6SM SKC
     FM301800 14004KT P6SM SCT025
     FM310900 18002KT 4SM BR SKC=

USA.gov is the U.S. government's official web portal to all federal, state and local government web resources and services.